createdAt,value
2018-02-22T00:00:43.744Z,70.59
2018-02-22T00:01:44.068Z,71.35
2018-02-22T00:02:44.385Z,72.11
2018-02-22T00:03:44.697Z,72.39
2018-02-22T00:04:45.010Z,72.11
2018-02-22T00:05:45.330Z,72.30
2018-02-22T00:06:45.438Z,72.20
2018-02-22T00:07:45.754Z,72.58
2018-02-22T00:08:46.082Z,73.14
2018-02-22T00:09:46.402Z,72.77
2018-02-22T00:10:46.723Z,72.11
2018-02-22T00:11:47.043Z,72.11
2018-02-22T00:12:47.365Z,72.86
2018-02-22T00:13:47.689Z,72.39
2018-02-22T00:14:48.015Z,72.20
2018-02-22T00:15:48.128Z,72.39
2018-02-22T00:16:48.235Z,73.14
2018-02-22T00:17:48.556Z,72.58
2018-02-22T00:18:48.876Z,73.05
2018-02-22T00:19:49.196Z,72.39
2018-02-22T00:20:49.503Z,72.11
2018-02-22T00:21:49.822Z,72.58
2018-02-22T00:22:50.144Z,71.92
2018-02-22T00:23:50.473Z,72.86
2018-02-22T00:24:50.575Z,72.49
2018-02-22T00:25:50.900Z,73.14
2018-02-22T00:26:51.008Z,72.49
2018-02-22T00:27:51.329Z,72.39
2018-02-22T00:28:51.649Z,72.49
2018-02-22T00:29:51.971Z,72.77
2018-02-22T00:30:52.291Z,73.33
2018-02-22T00:31:52.612Z,73.43
2018-02-22T00:32:52.935Z,73.43
2018-02-22T00:33:53.256Z,73.24
2018-02-22T00:34:53.584Z,73.05
2018-02-22T00:35:53.697Z,74.09
2018-02-22T00:36:53.809Z,73.14
2018-02-22T00:37:54.127Z,73.33
2018-02-22T00:38:54.446Z,73.14
2018-02-22T00:39:54.768Z,73.14
2018-02-22T00:40:55.097Z,73.52
2018-02-22T00:41:55.415Z,73.24
2018-02-22T00:42:55.729Z,74.00
2018-02-22T00:43:56.042Z,73.81
2018-02-22T00:44:56.354Z,74.47
2018-02-22T00:45:56.673Z,74.00
2018-02-22T00:46:56.783Z,74.19
2018-02-22T00:47:57.104Z,73.62
2018-02-22T00:48:57.425Z,73.33
2018-02-22T00:49:57.746Z,73.90
2018-02-22T00:50:58.067Z,74.24
2018-02-22T00:51:58.387Z,74.47
2018-02-22T00:52:58.708Z,74.47
2018-02-22T00:53:59.062Z,74.81
2018-02-22T00:54:59.411Z,75.04
2018-02-22T00:55:59.663Z,74.19
2018-02-22T00:56:59.991Z,74.19
2018-02-22T00:58:00.100Z,74.05
2018-02-22T00:59:00.420Z,73.90
2018-02-22T01:00:02.675Z,74.19
2018-02-22T01:01:01.007Z,74.19
2018-02-22T01:02:01.329Z,74.47
2018-02-22T01:03:01.648Z,74.09
2018-02-22T01:04:01.969Z,74.76
2018-02-22T01:05:02.297Z,74.57
2018-02-22T01:06:02.409Z,74.09
2018-02-22T01:07:02.729Z,74.95
2018-02-22T01:08:03.051Z,74.09
2018-02-22T01:09:03.372Z,74.47
2018-02-22T01:10:03.693Z,74.28
2018-02-22T01:11:04.015Z,74.47
2018-02-22T01:12:04.330Z,74.85
2018-02-22T01:13:04.647Z,75.60
2018-02-22T01:14:04.960Z,74.66
2018-02-22T01:15:05.276Z,74.57
2018-02-22T01:16:05.602Z,74.43
2018-02-22T01:17:05.922Z,74.76
2018-02-22T01:18:06.249Z,74.76
2018-02-22T01:19:06.565Z,74.05
2018-02-22T01:20:06.886Z,74.09
2018-02-22T01:21:07.205Z,74.43
2018-02-22T01:22:07.526Z,74.38
2018-02-22T01:23:07.853Z,74.76
2018-02-22T01:24:07.965Z,74.76
2018-02-22T01:25:08.284Z,74.76
2018-02-22T01:26:08.605Z,74.76
2018-02-22T01:27:08.925Z,74.47
2018-02-22T01:28:09.246Z,74.85
2018-02-22T01:29:09.571Z,74.90
2018-02-22T01:30:09.886Z,74.43
2018-02-22T01:31:10.201Z,74.71
2018-02-22T01:32:10.516Z,74.62
2018-02-22T01:33:10.833Z,74.81
2018-02-22T01:34:11.145Z,74.71
2018-02-22T01:35:11.468Z,74.81
2018-02-22T01:36:11.789Z,74.81
2018-02-22T01:37:12.109Z,74.53
2018-02-22T01:38:12.430Z,74.90
2018-02-22T01:39:12.754Z,74.71
2018-02-22T01:40:13.071Z,74.62
2018-02-22T01:41:13.391Z,74.81
2018-02-22T01:42:13.711Z,75.00
2018-02-22T01:43:14.038Z,75.00
2018-02-22T01:44:14.155Z,74.43
2018-02-22T01:45:14.259Z,74.81
2018-02-22T01:46:14.579Z,74.90
2018-02-22T01:47:14.899Z,75.38
2018-02-22T01:48:15.221Z,75.47
2018-02-22T01:49:15.541Z,75.19
2018-02-22T01:50:15.883Z,75.47
2018-02-22T01:51:15.989Z,75.66
2018-02-22T01:52:16.311Z,75.47
2018-02-22T01:53:16.631Z,75.09
2018-02-22T01:54:16.951Z,75.28
2018-02-22T01:55:17.272Z,75.57
2018-02-22T01:56:17.593Z,75.00
2018-02-22T01:57:17.912Z,75.09
2018-02-22T01:58:18.241Z,75.85
2018-02-22T01:59:18.351Z,75.19
2018-02-22T02:00:18.672Z,76.32
2018-02-22T02:01:18.993Z,76.14
2018-02-22T02:02:19.315Z,75.38
2018-02-22T02:03:19.633Z,75.00
2018-02-22T02:04:19.958Z,75.76
2018-02-22T02:05:20.272Z,75.66
2018-02-22T02:06:20.587Z,75.47
2018-02-22T02:07:20.907Z,74.90
2018-02-22T02:08:21.017Z,75.09
2018-02-22T02:09:21.337Z,75.38
2018-02-22T02:10:21.660Z,75.76
2018-02-22T02:11:21.979Z,75.28
2018-02-22T02:12:22.298Z,75.47
2018-02-22T02:13:22.618Z,75.28
2018-02-22T02:14:22.943Z,76.04
2018-02-22T02:15:23.050Z,75.57
2018-02-22T02:16:23.369Z,75.85
2018-02-22T02:17:23.690Z,75.85
2018-02-22T02:18:24.022Z,75.66
2018-02-22T02:19:24.130Z,75.57
2018-02-22T02:20:24.451Z,75.95
2018-02-22T02:21:24.772Z,76.23
2018-02-22T02:22:25.092Z,76.61
2018-02-22T02:23:25.422Z,75.95
2018-02-22T02:24:25.734Z,75.85
2018-02-22T02:25:26.048Z,75.28
2018-02-22T02:26:26.363Z,75.66
2018-02-22T02:27:26.677Z,76.79
2018-02-22T02:28:26.991Z,76.04
2018-02-22T02:29:27.309Z,75.76
2018-02-22T02:30:27.633Z,75.57
2018-02-22T02:31:27.953Z,75.57
2018-02-22T02:32:28.272Z,75.76
2018-02-22T02:33:28.593Z,76.14
2018-02-22T02:34:28.911Z,76.70
2018-02-22T02:35:29.220Z,76.42
2018-02-22T02:36:29.543Z,75.57
2018-02-22T02:37:29.862Z,75.66
2018-02-22T02:38:30.181Z,75.38
2018-02-22T02:39:30.501Z,75.38
2018-02-22T02:40:30.828Z,75.09
2018-02-22T02:41:30.942Z,75.09
2018-02-22T02:42:31.049Z,75.47
2018-02-22T02:43:31.369Z,76.23
2018-02-22T02:44:31.689Z,76.04
2018-02-22T02:45:32.009Z,76.04
2018-02-22T02:46:32.329Z,75.95
2018-02-22T02:47:32.657Z,76.14
2018-02-22T02:48:32.968Z,76.04
2018-02-22T02:49:33.286Z,75.85
2018-02-22T02:50:33.601Z,75.85
2018-02-22T02:51:33.914Z,76.23
2018-02-22T02:52:34.235Z,76.04
2018-02-22T02:53:34.557Z,75.76
2018-02-22T02:54:34.875Z,76.14
2018-02-22T02:55:35.199Z,76.04
2018-02-22T02:56:35.515Z,76.14
2018-02-22T02:57:35.836Z,75.76
2018-02-22T02:58:36.156Z,75.66
2018-02-22T02:59:36.477Z,75.57
2018-02-22T03:00:36.798Z,75.95
2018-02-22T03:01:37.125Z,76.32
2018-02-22T03:02:37.234Z,75.95
2018-02-22T03:03:37.555Z,75.57
2018-02-22T03:04:37.874Z,75.66
2018-02-22T03:05:38.195Z,75.57
2018-02-22T03:06:38.513Z,75.76
2018-02-22T03:07:38.855Z,75.76
2018-02-22T03:08:38.959Z,75.28
2018-02-22T03:09:39.279Z,75.57
2018-02-22T03:10:39.598Z,75.95
2018-02-22T03:11:39.921Z,75.66
2018-02-22T03:12:40.242Z,75.95
2018-02-22T03:13:40.562Z,75.76
2018-02-22T03:14:40.881Z,76.04
2018-02-22T03:15:41.202Z,76.04
2018-02-22T03:16:41.530Z,75.76
2018-02-22T03:17:41.641Z,76.32
2018-02-22T03:18:41.961Z,76.42
2018-02-22T03:19:42.282Z,75.57
2018-02-22T03:20:42.599Z,75.76
2018-02-22T03:21:42.923Z,76.79
2018-02-22T03:22:43.249Z,76.32
2018-02-22T03:23:43.567Z,76.04
2018-02-22T03:24:43.877Z,75.76
2018-02-22T03:25:44.192Z,76.32
2018-02-22T03:26:44.505Z,76.04
2018-02-22T03:27:44.827Z,76.42
2018-02-22T03:28:45.141Z,76.42
2018-02-22T03:29:45.468Z,75.85
2018-02-22T03:30:45.789Z,75.95
2018-02-22T03:31:46.109Z,76.23
2018-02-22T03:32:46.434Z,76.23
2018-02-22T03:33:46.748Z,76.61
2018-02-22T03:34:47.067Z,77.17
2018-02-22T03:35:47.387Z,76.79
2018-02-22T03:36:47.715Z,76.51
2018-02-22T03:37:47.831Z,77.08
2018-02-22T03:38:47.937Z,77.08
2018-02-22T03:39:48.256Z,76.32
2018-02-22T03:40:48.578Z,76.04
2018-02-22T03:41:48.896Z,76.32
2018-02-22T03:42:49.218Z,76.89
2018-02-22T03:43:49.542Z,76.42
2018-02-22T03:44:49.858Z,76.14
2018-02-22T03:45:50.171Z,76.61
2018-02-22T03:46:50.486Z,76.32
2018-02-22T03:47:50.801Z,76.42
2018-02-22T03:48:51.115Z,76.32
2018-02-22T03:49:51.429Z,76.42
2018-02-22T03:50:51.742Z,76.70
2018-02-22T03:51:52.062Z,76.79
2018-02-22T03:52:52.171Z,76.98
2018-02-22T03:53:52.493Z,76.42
2018-02-22T03:54:52.601Z,77.17
2018-02-22T03:55:52.920Z,77.64
2018-02-22T03:56:53.265Z,77.17
2018-02-22T03:57:53.548Z,77.08
2018-02-22T03:58:53.868Z,77.17
2018-02-22T03:59:54.188Z,76.51
2018-02-22T04:00:54.508Z,76.98
2018-02-22T04:01:54.828Z,76.89
2018-02-22T04:02:55.205Z,77.55
2018-02-22T04:03:55.469Z,77.64
2018-02-22T04:04:55.789Z,77.45
2018-02-22T04:05:56.116Z,77.55
2018-02-22T04:06:56.224Z,77.64
2018-02-22T04:07:56.545Z,77.55
2018-02-22T04:08:56.865Z,77.64
2018-02-22T04:09:57.186Z,77.55
2018-02-22T04:10:57.507Z,78.02
2018-02-22T04:11:57.832Z,77.26
2018-02-22T04:12:58.148Z,78.21
2018-02-22T04:13:58.461Z,77.74
2018-02-22T04:14:58.775Z,77.83
2018-02-22T04:15:59.090Z,78.97
2018-02-22T04:16:59.407Z,78.02
2018-02-22T04:17:59.718Z,77.55
2018-02-22T04:19:00.036Z,78.40
2018-02-22T04:20:00.144Z,78.59
2018-02-22T04:21:00.462Z,78.08
2018-02-22T04:22:00.781Z,78.02
2018-02-22T04:23:01.108Z,78.50
2018-02-22T04:24:01.220Z,77.93
2018-02-22T04:25:01.533Z,78.02
2018-02-22T04:26:01.853Z,77.80
2018-02-22T04:27:02.175Z,77.83
2018-02-22T04:28:02.497Z,77.93
2018-02-22T04:29:02.815Z,77.98
2018-02-22T04:30:03.135Z,78.12
2018-02-22T04:31:03.461Z,77.89
2018-02-22T04:32:03.571Z,78.17
2018-02-22T04:33:03.890Z,78.64
2018-02-22T04:34:04.211Z,79.21
2018-02-22T04:35:04.531Z,79.16
2018-02-22T04:36:04.851Z,78.45
2018-02-22T04:37:05.179Z,79.02
2018-02-22T04:38:05.511Z,78.83
2018-02-22T04:39:05.812Z,78.92
2018-02-22T04:40:06.125Z,78.27
2018-02-22T04:41:06.438Z,78.45
2018-02-22T04:42:06.550Z,78.45
2018-02-22T04:43:06.858Z,78.08
2018-02-22T04:44:07.178Z,78.64
2018-02-22T04:45:07.286Z,78.83
2018-02-22T04:46:07.610Z,79.68
2018-02-22T04:47:07.929Z,79.87
2018-02-22T04:48:08.250Z,79.49
2018-02-22T04:49:08.571Z,79.11
2018-02-22T04:50:08.890Z,79.40
2018-02-22T04:51:09.212Z,79.68
2018-02-22T04:52:09.530Z,79.49
2018-02-22T04:53:09.855Z,79.59
2018-02-22T04:54:10.176Z,78.92
2018-02-22T04:55:10.288Z,78.83
2018-02-22T04:56:10.609Z,79.21
2018-02-22T04:57:10.928Z,78.64
2018-02-22T04:58:11.252Z,78.83
2018-02-22T04:59:11.570Z,79.21
2018-02-22T05:00:11.896Z,79.49
2018-02-22T05:01:12.210Z,79.49
2018-02-22T05:02:12.525Z,79.49
2018-02-22T05:03:12.838Z,79.40
2018-02-22T05:04:13.185Z,79.78
2018-02-22T05:05:13.480Z,80.34
2018-02-22T05:06:13.801Z,80.15
2018-02-22T05:07:14.120Z,80.34
2018-02-22T05:08:14.439Z,80.72
2018-02-22T05:09:14.759Z,80.25
2018-02-22T05:10:15.079Z,79.49
2018-02-22T05:11:15.400Z,79.11
2018-02-22T05:12:15.719Z,79.11
2018-02-22T05:13:16.048Z,79.97
2018-02-22T05:14:16.158Z,80.25
2018-02-22T05:15:16.271Z,80.06
2018-02-22T05:16:16.588Z,80.25
2018-02-22T05:17:16.907Z,80.53
2018-02-22T05:18:17.228Z,79.87
2018-02-22T05:19:17.549Z,80.06
2018-02-22T05:20:17.874Z,80.44
2018-02-22T05:21:18.189Z,80.82
2018-02-22T05:22:18.510Z,80.44
2018-02-22T05:23:18.832Z,80.06
2018-02-22T05:24:19.134Z,79.87
2018-02-22T05:25:19.455Z,80.06
2018-02-22T05:26:19.775Z,80.25
2018-02-22T05:27:20.096Z,79.97
2018-02-22T05:28:20.417Z,80.15
2018-02-22T05:29:20.747Z,80.25
2018-02-22T05:30:21.056Z,80.63
2018-02-22T05:31:21.378Z,80.53
2018-02-22T05:32:21.694Z,81.48
2018-02-22T05:33:22.015Z,81.01
2018-02-22T05:34:22.395Z,80.15
2018-02-22T05:35:22.453Z,80.53
2018-02-22T05:36:22.566Z,80.91
2018-02-22T05:37:22.884Z,81.10
2018-02-22T05:38:23.205Z,80.91
2018-02-22T05:39:23.526Z,81.29
2018-02-22T05:40:23.844Z,81.67
2018-02-22T05:41:24.171Z,80.82
2018-02-22T05:42:24.506Z,81.01
2018-02-22T05:43:24.800Z,81.01
2018-02-22T05:44:25.112Z,81.57
2018-02-22T05:45:25.429Z,81.76
2018-02-22T05:46:25.740Z,81.01
2018-02-22T05:47:26.056Z,81.10
2018-02-22T05:48:26.377Z,80.82
2018-02-22T05:49:26.698Z,81.20
2018-02-22T05:50:26.807Z,81.10
2018-02-22T05:51:27.122Z,80.63
2018-02-22T05:52:27.442Z,80.34
2018-02-22T05:53:27.762Z,80.63
2018-02-22T05:54:28.085Z,80.72
2018-02-22T05:55:28.402Z,80.34
2018-02-22T05:56:28.722Z,80.44
2018-02-22T05:57:29.041Z,80.53
2018-02-22T05:58:29.362Z,80.63
2018-02-22T05:59:29.690Z,80.72
2018-02-22T06:00:29.798Z,80.34
2018-02-22T06:01:30.119Z,79.87
2018-02-22T06:02:30.442Z,79.87
2018-02-22T06:03:30.761Z,79.87
2018-02-22T06:04:31.079Z,80.06
2018-02-22T06:05:31.406Z,80.06
2018-02-22T06:06:31.719Z,80.06
2018-02-22T06:07:32.036Z,80.53
2018-02-22T06:08:32.350Z,80.53
2018-02-22T06:09:32.667Z,80.53
2018-02-22T06:10:32.988Z,80.53
2018-02-22T06:11:33.307Z,80.34
2018-02-22T06:12:33.627Z,80.34
2018-02-22T06:13:33.947Z,80.15
2018-02-22T06:14:34.268Z,80.44
2018-02-22T06:15:34.589Z,80.06
2018-02-22T06:16:34.909Z,80.63
2018-02-22T06:17:35.228Z,80.63
2018-02-22T06:18:35.548Z,80.91
2018-02-22T06:19:35.879Z,80.53
2018-02-22T06:20:35.986Z,81.01
2018-02-22T06:21:36.307Z,81.20
2018-02-22T06:22:36.626Z,81.95
2018-02-22T06:23:36.946Z,81.67
2018-02-22T06:24:37.266Z,81.29
2018-02-22T06:25:37.589Z,81.10
2018-02-22T06:26:37.906Z,81.01
2018-02-22T06:27:38.222Z,81.57
2018-02-22T06:28:38.534Z,81.57
2018-02-22T06:29:38.848Z,81.10
2018-02-22T06:30:39.162Z,81.48
2018-02-22T06:31:39.476Z,81.20
2018-02-22T06:32:39.796Z,80.53
2018-02-22T06:33:40.112Z,80.25
2018-02-22T06:34:40.229Z,80.91
2018-02-22T06:35:40.540Z,80.63
2018-02-22T06:36:40.852Z,81.48
2018-02-22T06:37:41.229Z,81.29
2018-02-22T06:38:41.494Z,81.01
2018-02-22T06:39:41.817Z,80.15
2018-02-22T06:40:41.924Z,80.15
2018-02-22T06:41:42.244Z,81.01
2018-02-22T06:42:42.563Z,80.63
2018-02-22T06:43:42.887Z,80.15
2018-02-22T06:44:43.207Z,79.87
2018-02-22T06:45:43.540Z,79.02
2018-02-22T06:46:43.648Z,79.40
2018-02-22T06:47:43.968Z,79.78
2018-02-22T06:48:44.288Z,79.11
2018-02-22T06:49:44.609Z,79.11
2018-02-22T06:50:44.926Z,79.63
2018-02-22T06:51:45.251Z,79.72
2018-02-22T06:56:09.691Z,78.68
2018-02-22T06:58:40.560Z,77.55
2018-02-22T06:59:40.881Z,77.64
2018-02-22T07:00:41.203Z,76.61
2018-02-22T07:01:41.505Z,77.45
2018-02-22T07:02:41.822Z,77.55
2018-02-22T07:03:42.145Z,77.93
2018-02-22T07:04:42.478Z,76.98
2018-02-22T07:05:42.575Z,76.70
2018-02-22T07:06:42.921Z,77.08
2018-02-22T07:07:49.707Z,77.45
2018-02-22T07:08:43.436Z,77.45
2018-02-22T07:09:43.755Z,77.55
2018-02-22T07:10:44.075Z,77.55
2018-02-22T07:11:44.393Z,77.45
2018-02-22T07:12:44.707Z,77.55
2018-02-22T07:13:45.029Z,77.83
2018-02-22T07:14:45.348Z,76.89
2018-02-22T07:15:45.668Z,76.89
2018-02-22T07:16:45.989Z,76.89
2018-02-22T07:17:46.307Z,77.74
2018-02-22T07:18:46.632Z,77.55
2018-02-22T07:19:46.746Z,77.64
2018-02-22T07:20:47.066Z,77.45
2018-02-22T07:21:47.391Z,76.32
2018-02-22T07:22:47.495Z,76.61
2018-02-22T07:23:47.817Z,76.79
2018-02-22T07:24:48.137Z,76.98
2018-02-22T07:25:48.467Z,77.55
2018-02-22T07:26:48.780Z,76.98
2018-02-22T07:27:49.099Z,76.79
2018-02-22T07:28:49.425Z,76.42
2018-02-22T07:29:49.723Z,76.32
2018-02-22T07:30:50.039Z,76.61
2018-02-22T07:31:50.353Z,76.61
2018-02-22T07:32:50.669Z,76.23
2018-02-22T07:33:50.983Z,76.32
2018-02-22T07:34:51.305Z,75.95
2018-02-22T07:35:51.625Z,75.28
2018-02-22T07:36:51.945Z,75.47
2018-02-22T07:37:52.266Z,76.04
2018-02-22T07:38:52.586Z,76.14
2018-02-22T07:39:52.907Z,75.85
2018-02-22T07:40:53.227Z,76.14
2018-02-22T07:41:53.547Z,76.14
2018-02-22T07:42:53.912Z,76.23
2018-02-22T07:43:54.023Z,75.47
2018-02-22T07:44:54.340Z,75.66
2018-02-22T07:45:54.647Z,75.95
2018-02-22T07:46:54.966Z,75.19
2018-02-22T07:47:55.279Z,74.90
2018-02-22T07:48:55.597Z,74.24
2018-02-22T07:49:55.915Z,74.62
2018-02-22T07:50:56.237Z,74.90
2018-02-22T07:51:56.560Z,74.34
2018-02-22T07:52:56.880Z,73.86
2018-02-22T07:53:57.202Z,74.05
2018-02-22T07:54:57.317Z,73.30
2018-02-22T07:55:57.637Z,73.49
2018-02-22T07:56:57.968Z,74.00
2018-02-22T07:57:58.077Z,74.28
2018-02-22T07:58:58.396Z,74.76
2018-02-22T07:59:58.726Z,74.00
2018-02-22T08:00:59.035Z,71.92
2018-02-22T08:01:59.363Z,72.02
2018-02-22T08:02:59.684Z,72.49
2018-02-22T08:04:00.004Z,72.02
2018-02-22T08:05:00.315Z,71.64
2018-02-22T08:06:00.627Z,71.16
2018-02-22T08:07:00.980Z,70.88
2018-02-22T08:08:01.283Z,71.07
2018-02-22T08:09:01.590Z,70.69
2018-02-22T08:10:01.892Z,70.59
2018-02-22T08:11:02.208Z,70.31
2018-02-22T08:12:02.523Z,70.21
2018-02-22T08:13:02.838Z,70.78
2018-02-22T08:14:03.160Z,70.40
2018-02-22T08:15:03.271Z,70.12
2018-02-22T08:16:03.590Z,70.31
2018-02-22T08:17:03.911Z,69.93
2018-02-22T08:18:04.231Z,70.16
2018-02-22T08:19:04.540Z,70.54
2018-02-22T08:20:04.658Z,69.59
2018-02-22T08:21:04.981Z,69.12
2018-02-22T08:22:05.328Z,68.93
2018-02-22T08:23:05.439Z,69.40
2018-02-22T08:24:05.758Z,69.12
2018-02-22T08:25:06.080Z,69.40
2018-02-22T08:26:06.407Z,69.59
2018-02-22T08:27:06.726Z,68.93
2018-02-22T08:28:07.040Z,68.93
2018-02-22T08:29:07.348Z,68.84
2018-02-22T08:30:07.670Z,69.02
2018-02-22T08:31:07.978Z,68.55
2018-02-22T08:32:08.297Z,69.02
2018-02-22T08:33:08.623Z,68.74
2018-02-22T08:34:08.940Z,67.51
2018-02-22T08:35:09.263Z,67.32
2018-02-22T08:36:09.585Z,67.51
2018-02-22T08:37:09.909Z,67.51
2018-02-22T08:38:10.225Z,67.60
2018-02-22T08:39:10.554Z,66.66
2018-02-22T08:40:10.668Z,66.75
2018-02-22T08:41:10.777Z,66.66
2018-02-22T08:42:11.110Z,66.66
2018-02-22T08:43:11.403Z,67.13
2018-02-22T08:44:11.720Z,67.51
2018-02-22T08:45:12.040Z,67.32
2018-02-22T08:46:12.361Z,67.51
2018-02-22T08:47:12.685Z,65.72
2018-02-22T08:48:13.012Z,66.00
2018-02-22T08:49:13.325Z,65.81
2018-02-22T08:50:13.638Z,66.47
2018-02-22T08:51:13.964Z,66.00
2018-02-22T08:52:14.268Z,65.72
2018-02-22T08:53:14.589Z,66.38
2018-02-22T08:54:14.914Z,65.24
2018-02-22T08:55:15.236Z,64.77
2018-02-22T08:56:15.557Z,64.01
2018-02-22T08:57:15.878Z,63.45
2018-02-22T08:58:16.198Z,63.64
2018-02-22T08:59:16.521Z,63.73
2018-02-22T09:00:16.849Z,63.92
2018-02-22T09:01:16.960Z,63.26
2018-02-22T09:02:17.280Z,63.35
2018-02-22T09:03:17.601Z,64.01
2018-02-22T09:04:17.922Z,63.82
2018-02-22T09:05:18.252Z,63.54
2018-02-22T09:06:18.558Z,64.48
2018-02-22T09:07:18.882Z,63.35
2018-02-22T09:08:19.195Z,63.45
2018-02-22T09:09:19.508Z,63.64
2018-02-22T09:10:19.825Z,63.92
2018-02-22T09:11:20.139Z,63.73
2018-02-22T09:12:20.635Z,64.20
2018-02-22T09:13:20.568Z,63.26
2018-02-22T09:14:20.896Z,62.97
2018-02-22T09:15:21.215Z,63.16
2018-02-22T09:16:21.537Z,63.64
2018-02-22T09:17:21.846Z,63.35
2018-02-22T09:18:22.163Z,63.16
2018-02-22T09:19:22.484Z,62.21
2018-02-22T09:20:22.805Z,61.96
2018-02-22T09:21:23.126Z,62.21
2018-02-22T09:22:23.456Z,62.21
2018-02-22T09:23:23.567Z,62.02
2018-02-22T09:24:23.895Z,62.50
2018-02-22T09:25:24.201Z,63.54
2018-02-22T09:26:24.545Z,62.31
2018-02-22T09:27:24.844Z,62.59
2018-02-22T09:28:25.167Z,63.73
2018-02-22T09:29:25.488Z,63.16
2018-02-22T09:30:25.806Z,63.82
2018-02-22T09:31:26.118Z,63.92
2018-02-22T09:32:26.446Z,63.16
2018-02-22T09:33:26.747Z,63.64
2018-02-22T09:34:27.061Z,62.97
2018-02-22T09:35:27.387Z,64.58
2018-02-22T09:36:27.706Z,64.11
2018-02-22T09:37:28.024Z,63.45
2018-02-22T09:38:28.344Z,63.73
2018-02-22T09:39:28.664Z,63.16
2018-02-22T09:40:28.980Z,62.21
2018-02-22T09:41:29.306Z,62.40
2018-02-22T09:42:29.415Z,62.59
2018-02-22T09:43:29.734Z,63.26
2018-02-22T09:44:30.098Z,62.69
2018-02-22T09:45:30.175Z,63.82
2018-02-22T09:46:30.509Z,63.16
2018-02-22T09:47:30.819Z,62.97
2018-02-22T09:48:31.139Z,62.50
2018-02-22T09:49:31.468Z,62.12
2018-02-22T09:50:31.799Z,62.21
2018-02-22T09:51:32.099Z,62.02
2018-02-22T09:52:32.423Z,63.35
2018-02-22T09:53:32.747Z,62.50
2018-02-22T09:54:33.043Z,61.27
2018-02-22T09:55:33.358Z,60.80
2018-02-22T09:56:33.676Z,60.80
2018-02-22T09:57:34.002Z,61.46
2018-02-22T09:58:34.108Z,61.08
2018-02-22T09:59:34.432Z,60.89
2018-02-22T10:00:34.749Z,59.09
2018-02-22T10:01:35.068Z,58.91
2018-02-22T10:02:35.389Z,59.38
2018-02-22T10:03:35.712Z,59.28
2018-02-22T10:04:36.033Z,58.91
2018-02-22T10:05:36.361Z,59.66
2018-02-22T10:06:36.471Z,59.88
2018-02-22T10:07:36.792Z,59.60
2018-02-22T10:08:37.114Z,57.99
2018-02-22T10:09:37.436Z,57.52
2018-02-22T10:10:37.762Z,56.95
2018-02-22T10:11:38.084Z,56.20
2018-02-22T10:12:38.390Z,56.10
2018-02-22T10:13:38.711Z,56.10
2018-02-22T10:14:38.821Z,56.48
2018-02-22T10:15:39.145Z,56.48
2018-02-22T10:16:40.047Z,57.33
2018-02-22T10:17:40.030Z,57.42
2018-02-22T10:18:40.572Z,56.76
2018-02-22T10:19:40.614Z,55.91
2018-02-22T10:20:40.992Z,55.91
2018-02-22T10:21:41.100Z,55.82
2018-02-22T10:22:41.205Z,55.82
2018-02-22T10:23:41.522Z,55.63
2018-02-22T10:24:41.855Z,56.20
2018-02-22T10:25:42.171Z,55.72
2018-02-22T10:26:42.490Z,55.44
2018-02-22T10:27:42.599Z,54.87
2018-02-22T10:28:43.072Z,55.25
2018-02-22T10:29:43.246Z,54.87
2018-02-22T10:30:43.565Z,54.80
2018-02-22T10:31:43.890Z,55.25
2018-02-22T10:32:44.272Z,54.90
2018-02-22T10:33:44.377Z,55.18
2018-02-22T10:34:44.705Z,54.42
2018-02-22T10:35:45.018Z,53.19
2018-02-22T10:36:45.345Z,52.53
2018-02-22T10:37:45.640Z,53.28
2018-02-22T10:38:45.958Z,52.15
2018-02-22T10:39:46.285Z,52.06
2018-02-22T10:40:46.385Z,53.28
2018-02-22T10:41:46.719Z,53.19
2018-02-22T10:42:47.038Z,52.91
2018-02-22T10:43:47.361Z,53.66
2018-02-22T10:44:47.852Z,52.62
2018-02-22T10:45:48.014Z,53.28
2018-02-22T10:46:48.133Z,53.47
2018-02-22T10:47:48.310Z,53.85
2018-02-22T10:48:48.557Z,53.95
2018-02-22T10:49:48.884Z,54.04
2018-02-22T10:50:49.199Z,54.80
2018-02-22T10:51:49.523Z,54.33
2018-02-22T10:52:49.839Z,53.19
2018-02-22T10:53:50.159Z,53.76
2018-02-22T10:54:50.501Z,52.98
2018-02-22T10:55:50.782Z,54.02
2018-02-22T10:56:51.105Z,53.17
2018-02-22T10:57:51.459Z,53.45
2018-02-22T10:58:51.739Z,54.02
2018-02-22T10:59:52.060Z,53.92
2018-02-22T11:00:52.366Z,54.49
2018-02-22T11:01:52.679Z,55.82
2018-02-22T11:02:53.127Z,55.69
2018-02-22T11:03:53.239Z,56.16
2018-02-22T11:04:53.544Z,55.50
2018-02-22T11:06:05.024Z,56.07
2018-02-22T11:06:54.109Z,56.35
2018-02-22T11:07:54.218Z,55.63
2018-02-22T11:09:09.274Z,55.82
2018-02-22T11:09:54.710Z,56.01
2018-02-22T11:10:57.800Z,54.87
2018-02-22T11:11:55.317Z,54.96
2018-02-22T11:12:55.442Z,55.06
2018-02-22T11:13:55.752Z,55.15
2018-02-22T11:17:02.569Z,53.19
2018-02-22T11:18:03.053Z,52.53
2018-02-22T11:19:03.034Z,52.44
2018-02-22T11:20:03.556Z,52.53
2018-02-22T11:21:03.696Z,51.68
2018-02-22T11:22:03.993Z,51.51
2018-02-22T11:23:04.293Z,51.51
2018-02-22T11:24:04.623Z,51.51
2018-02-22T11:25:04.945Z,50.35
2018-02-22T11:26:05.267Z,50.92
2018-02-22T11:27:05.586Z,50.63
2018-02-22T11:28:05.908Z,51.20
2018-02-22T11:29:06.242Z,51.77
2018-02-22T11:30:06.518Z,51.87
2018-02-22T11:31:06.661Z,51.68
2018-02-22T11:32:07.194Z,52.44
2018-02-22T11:33:13.908Z,52.81
2018-02-22T11:35:42.481Z,52.69
2018-02-22T11:38:19.532Z,52.69
2018-02-22T11:38:43.928Z,53.26
2018-02-22T11:39:44.254Z,53.36
2018-02-22T11:40:44.563Z,52.50
2018-02-22T11:41:44.909Z,51.65
2018-02-22T11:42:45.182Z,53.07
2018-02-22T11:43:45.597Z,52.79
2018-02-22T11:44:45.710Z,53.26
2018-02-22T11:45:46.046Z,53.36
2018-02-22T11:46:46.373Z,53.55
2018-02-22T11:47:46.480Z,53.17
2018-02-22T11:48:46.804Z,53.64
2018-02-22T11:49:47.140Z,53.26
2018-02-22T11:50:47.249Z,53.45
2018-02-22T11:51:47.581Z,52.60
2018-02-22T11:52:47.891Z,52.88
2018-02-22T11:53:48.214Z,53.45
2018-02-22T11:54:48.594Z,53.17
2018-02-22T11:55:48.855Z,53.07
2018-02-22T11:56:49.180Z,53.45
2018-02-22T11:57:49.289Z,53.55
2018-02-22T11:58:49.612Z,54.02
2018-02-22T11:59:49.717Z,53.92
2018-02-22T12:00:50.156Z,54.11
2018-02-22T12:01:50.161Z,54.11
2018-02-22T12:02:50.482Z,53.26
2018-02-22T12:03:50.805Z,53.17
2018-02-22T12:04:51.133Z,52.60
2018-02-22T12:05:51.253Z,51.77
2018-02-22T12:06:51.359Z,50.61
2018-02-22T12:07:51.709Z,50.82
2018-02-22T12:08:51.882Z,50.82
2018-02-22T12:09:51.928Z,51.30
2018-02-22T12:10:52.255Z,50.73
2018-02-22T12:11:52.578Z,50.73
2018-02-22T12:12:52.902Z,50.63
2018-02-22T12:13:53.216Z,51.58
2018-02-22T12:14:53.538Z,50.54
2018-02-22T12:15:53.860Z,50.07
2018-02-22T12:16:54.189Z,49.98
2018-02-22T12:17:54.302Z,50.35
2018-02-22T12:18:54.624Z,49.98
2018-02-22T12:19:54.946Z,51.09
2018-02-22T12:20:55.283Z,51.58
2018-02-22T12:21:55.593Z,52.62
2018-02-22T12:22:55.911Z,52.41
2018-02-22T12:23:56.224Z,52.12
2018-02-22T12:24:56.541Z,52.31
2018-02-22T12:25:56.862Z,51.75
2018-02-22T12:26:57.183Z,51.96
2018-02-22T12:27:57.505Z,52.81
2018-02-22T12:28:57.827Z,52.62
2018-02-22T12:29:58.147Z,52.72
2018-02-22T12:30:58.470Z,51.30
2018-02-22T12:31:58.791Z,50.54
2018-02-22T12:32:59.118Z,51.68
2018-02-22T12:33:59.236Z,51.49
2018-02-22T12:34:59.351Z,51.87
2018-02-22T12:35:59.665Z,50.73
2018-02-22T12:36:59.990Z,50.26
2018-02-22T12:38:00.360Z,51.11
2018-02-22T12:39:00.631Z,50.26
2018-02-22T12:40:00.948Z,50.35
2018-02-22T12:41:01.268Z,51.11
2018-02-22T12:42:01.574Z,50.26
2018-02-22T12:43:01.899Z,51.20
2018-02-22T12:44:02.268Z,50.54
2018-02-22T12:45:02.543Z,50.76
2018-02-22T12:46:02.861Z,50.66
2018-02-22T12:47:03.184Z,49.71
2018-02-22T12:48:03.517Z,50.19
2018-02-22T12:49:03.826Z,50.57
2018-02-22T12:50:04.164Z,49.71
2018-02-22T12:51:04.281Z,48.49
2018-02-22T12:52:04.391Z,48.96
2018-02-22T12:53:04.773Z,48.68
2018-02-22T12:54:05.026Z,48.86
2018-02-22T12:55:05.353Z,48.96
2018-02-22T12:56:05.668Z,48.01
2018-02-22T12:57:05.986Z,47.91
2018-02-22T12:58:06.305Z,47.51
2018-02-22T12:59:06.617Z,47.42
2018-02-22T13:00:06.953Z,48.01
2018-02-22T13:01:07.054Z,48.01
2018-02-22T13:02:07.374Z,47.72
2018-02-22T13:03:07.697Z,47.42
2018-02-22T13:04:08.018Z,47.80
2018-02-22T13:05:08.340Z,48.65
2018-02-22T13:06:08.671Z,48.46